Time;durP1;ratioP1;P1;durP2;ratioP2;P2;SDS_P1;SDS_P2;PMS_P1;PMS_P2;Temp;Humidity;BMP_temperature;BMP_pressure;BME280_temperature;BME280_humidity;BME280_pressure;Samples;Min_cycle;Max_cycle;Signal;HPM_P1;HPM_P2
2022/11/06 00:01:59;;;;;;;12.23;8.45;;;23.70;49.90;;;;;;6195405;28;80420;-64
2022/11/06 00:06:46;;;;;;;15.25;8.10;;;23.70;49.90;;;;;;6199321;28;81146;-67
2022/11/06 00:08:20;;;;;;;12.75;8.05;;;23.70;49.90;;;;;;6195386;28;81189;-58
2022/11/06 00:11:21;;;;;;;13.07;8.18;;;23.70;49.80;;;;;;6196635;28;80931;-57
2022/11/06 00:14:21;;;;;;;14.45;7.55;;;23.70;49.80;;;;;;6199815;28;81008;-58
2022/11/06 00:17:21;;;;;;;11.35;8.00;;;23.70;49.80;;;;;;6197741;28;81520;-58
2022/11/06 00:20:22;;;;;;;9.85;7.32;;;23.70;49.80;;;;;;6196547;28;81037;-58
2022/11/06 00:23:22;;;;;;;11.60;7.35;;;23.70;50.00;;;;;;6211000;28;84654;-59
2022/11/06 00:26:23;;;;;;;13.50;8.23;;;23.70;50.70;;;;;;6199683;28;80387;-68
2022/11/06 00:29:23;;;;;;;14.40;7.65;;;23.70;50.50;;;;;;6197526;28;86675;-66
2022/11/06 00:32:24;;;;;;;12.15;8.15;;;23.70;50.50;;;;;;6195324;28;80931;-67
2022/11/06 00:35:24;;;;;;;11.30;7.40;;;23.70;50.40;;;;;;6192586;28;80774;-67
2022/11/06 00:38:25;;;;;;;16.52;7.60;;;23.70;50.30;;;;;;6193812;28;80606;-66
2022/11/06 00:41:25;;;;;;;11.18;7.75;;;23.70;50.40;;;;;;6200743;28;85195;-72
2022/11/06 00:44:26;;;;;;;8.20;5.95;;;23.70;50.40;;;;;;6199183;28;83835;-62
2022/11/06 00:47:27;;;;;;;12.38;7.43;;;23.70;51.20;;;;;;6197758;28;80439;-62
2022/11/06 00:50:27;;;;;;;10.85;7.10;;;23.70;50.90;;;;;;6202546;28;81098;-64
2022/11/06 00:53:28;;;;;;;11.10;6.60;;;23.70;51.10;;;;;;6202690;28;80470;-63
2022/11/06 00:56:28;;;;;;;10.98;7.20;;;23.70;51.10;;;;;;6202547;28;80400;-64
2022/11/06 00:59:29;;;;;;;9.70;7.22;;;23.70;50.90;;;;;;6199851;28;86954;-63
2022/11/06 01:02:29;;;;;;;11.30;7.53;;;23.70;50.90;;;;;;6204065;28;80862;-63
2022/11/06 01:05:30;;;;;;;11.02;6.97;;;23.70;50.70;;;;;;6179068;28;80291;-64
2022/11/06 01:08:30;;;;;;;13.40;7.45;;;23.70;50.70;;;;;;6174809;28;81222;-64
2022/11/06 01:11:31;;;;;;;11.88;7.07;;;23.60;51.00;;;;;;6195384;28;83430;-65
2022/11/06 01:14:31;;;;;;;10.73;7.50;;;23.60;50.60;;;;;;6204084;28;81235;-64
2022/11/06 01:17:32;;;;;;;13.32;8.00;;;23.60;50.70;;;;;;6194305;28;80443;-64
2022/11/06 01:20:32;;;;;;;12.57;7.50;;;23.60;50.60;;;;;;6199644;28;87789;-64
2022/11/06 01:23:33;;;;;;;12.30;7.47;;;23.60;50.60;;;;;;6198812;28;80609;-63
2022/11/06 01:26:33;;;;;;;11.02;7.03;;;23.60;50.60;;;;;;6182617;28;80445;-64
2022/11/06 01:29:34;;;;;;;10.50;7.13;;;23.60;50.60;;;;;;6165529;28;80880;-64
2022/11/06 01:32:34;;;;;;;13.43;7.55;;;23.60;50.60;;;;;;6190469;28;86706;-65
2022/11/06 01:35:35;;;;;;;9.57;6.82;;;23.60;50.60;;;;;;6197060;28;82245;-64
2022/11/06 01:38:35;;;;;;;9.75;7.18;;;23.60;51.00;;;;;;6177668;28;81949;-64
2022/11/06 01:41:36;;;;;;;11.80;7.55;;;23.60;51.10;;;;;;6176486;28;80875;-67
2022/11/06 01:44:37;;;;;;;10.63;7.00;;;23.60;51.20;;;;;;6174951;28;80344;-69
2022/11/06 01:47:37;;;;;;;10.48;6.80;;;23.60;51.10;;;;;;6194844;28;81151;-69
2022/11/06 01:50:38;;;;;;;11.57;6.97;;;23.60;50.80;;;;;;6175562;28;86558;-69
2022/11/06 01:53:38;;;;;;;11.98;7.53;;;23.60;50.80;;;;;;6177852;28;80441;-68
2022/11/06 01:56:39;;;;;;;13.38;7.45;;;23.60;50.90;;;;;;6172901;28;84306;-66
2022/11/06 01:59:39;;;;;;;10.45;7.40;;;23.60;50.80;;;;;;6190189;28;80489;-68
2022/11/06 02:02:40;;;;;;;11.20;6.95;;;23.60;50.70;;;;;;6164265;28;83981;-67
2022/11/06 02:05:40;;;;;;;13.93;7.40;;;23.60;50.70;;;;;;6175323;28;80325;-67
2022/11/06 02:08:41;;;;;;;15.32;7.50;;;23.60;50.70;;;;;;6173933;28;82493;-68
2022/11/06 02:11:41;;;;;;;10.70;6.97;;;23.60;50.70;;;;;;6193652;28;80978;-68
2022/11/06 02:14:42;;;;;;;9.65;6.43;;;23.60;50.60;;;;;;6199100;28;82859;-65
2022/11/06 02:17:42;;;;;;;10.23;6.65;;;23.60;50.80;;;;;;6180837;28;80263;-67
2022/11/06 02:20:43;;;;;;;11.73;7.20;;;23.60;50.70;;;;;;6174700;28;83633;-66
2022/11/06 02:23:43;;;;;;;12.07;7.38;;;23.60;51.30;;;;;;6171508;28;81690;-66
2022/11/06 02:26:44;;;;;;;10.40;6.88;;;23.60;50.70;;;;;;6176813;28;80484;-66
2022/11/06 02:29:45;;;;;;;9.18;6.50;;;23.60;50.70;;;;;;6174432;28;82013;-67
2022/11/06 02:32:45;;;;;;;10.18;6.90;;;23.60;50.60;;;;;;6178390;28;80507;-66
2022/11/06 02:35:46;;;;;;;11.23;7.05;;;23.60;50.70;;;;;;6192316;28;83120;-67
2022/11/06 02:38:47;;;;;;;11.93;7.50;;;23.60;50.60;;;;;;6176584;28;86698;-71
2022/11/06 02:41:48;;;;;;;9.45;6.72;;;23.60;50.70;;;;;;6196646;28;81129;-70
2022/11/06 02:44:48;;;;;;;11.55;6.97;;;23.60;50.70;;;;;;6197870;28;83702;-66
2022/11/06 02:47:49;;;;;;;11.65;7.45;;;23.60;50.70;;;;;;6196489;28;80522;-66
2022/11/06 02:50:49;;;;;;;11.35;6.75;;;23.60;50.70;;;;;;6198488;28;83201;-66
2022/11/06 02:53:50;;;;;;;12.88;7.25;;;23.60;50.60;;;;;;6196699;28;86524;-66
2022/11/06 02:56:50;;;;;;;10.65;6.97;;;23.60;50.60;;;;;;6211218;28;83106;-65
2022/11/06 02:59:51;;;;;;;10.05;6.88;;;23.60;50.60;;;;;;6167254;28;85237;-66
2022/11/06 03:02:52;;;;;;;10.93;6.85;;;23.60;50.60;;;;;;6189200;28;81030;-67
2022/11/06 03:05:52;;;;;;;9.43;6.88;;;23.60;50.60;;;;;;6198028;28;83544;-66
2022/11/06 03:08:53;;;;;;;9.23;6.38;;;23.60;50.50;;;;;;6194164;28;80564;-66
2022/11/06 03:11:54;;;;;;;11.65;6.65;;;23.60;50.60;;;;;;6199994;28;80902;-59
2022/11/06 03:14:54;;;;;;;12.75;7.68;;;23.60;50.60;;;;;;6197714;28;80262;-59
2022/11/06 03:17:55;;;;;;;12.23;6.65;;;23.60;50.60;;;;;;6176396;28;80806;-59
2022/11/06 03:20:55;;;;;;;9.55;6.97;;;23.50;50.60;;;;;;6171012;28;80453;-59
2022/11/06 03:23:56;;;;;;;12.30;7.65;;;23.60;50.40;;;;;;6169743;28;80373;-59
2022/11/06 03:26:56;;;;;;;11.63;7.10;;;23.60;50.50;;;;;;6171974;28;80566;-59
2022/11/06 03:29:57;;;;;;;11.48;6.53;;;23.60;50.60;;;;;;6195813;28;83836;-57
2022/11/06 03:32:57;;;;;;;10.48;6.20;;;23.50;50.50;;;;;;6196813;28;80893;-58
2022/11/06 03:35:58;;;;;;;11.90;6.45;;;23.60;50.60;;;;;;6177429;28;81576;-58
2022/11/06 03:38:59;;;;;;;11.65;6.88;;;23.60;50.50;;;;;;6169693;28;81128;-57
2022/11/06 03:41:59;;;;;;;10.35;6.15;;;23.60;50.70;;;;;;6172405;28;80663;-57
2022/11/06 03:45:00;;;;;;;10.07;6.53;;;23.60;50.80;;;;;;6198236;28;81318;-57
2022/11/06 03:48:00;;;;;;;10.82;6.80;;;23.60;50.90;;;;;;6160479;28;80444;-63
2022/11/06 03:51:01;;;;;;;10.57;6.13;;;23.60;51.00;;;;;;6197534;28;80936;-64
2022/11/06 03:54:01;;;;;;;11.23;6.72;;;23.60;50.70;;;;;;6171426;28;80168;-63
2022/11/06 03:57:02;;;;;;;8.68;6.20;;;23.60;51.00;;;;;;6172864;28;80410;-63
2022/11/06 04:00:02;;;;;;;9.52;5.82;;;23.60;51.00;;;;;;6176533;28;80684;-63
2022/11/06 04:03:12;;;;;;;10.43;6.35;;;23.60;51.10;;;;;;6199689;28;80443;-63
2022/11/06 04:06:12;;;;;;;10.18;6.15;;;23.60;51.40;;;;;;6175386;28;81664;-66
2022/11/06 04:15:51;;;;;;;11.57;6.93;;;23.60;50.90;;;;;;6197238;28;81180;-64
2022/11/06 04:18:52;;;;;;;12.85;7.07;;;23.60;50.70;;;;;;6201859;28;80233;-65
2022/11/06 04:21:52;;;;;;;15.38;5.97;;;23.50;50.50;;;;;;6204465;28;80675;-64
2022/11/06 04:28:12;;;;;;;11.18;5.57;;;23.50;50.80;;;;;;6201076;28;80969;-65
2022/11/06 04:31:12;;;;;;;9.25;6.20;;;23.50;51.10;;;;;;6201507;28;83412;-64
2022/11/06 04:34:13;;;;;;;13.20;6.63;;;23.50;50.60;;;;;;6209809;28;80264;-63
2022/11/06 04:37:14;;;;;;;7.85;5.50;;;23.50;50.90;;;;;;6184328;28;81803;-64
2022/11/06 04:40:14;;;;;;;8.60;5.55;;;23.50;50.90;;;;;;6187879;28;86174;-67
2022/11/06 04:43:15;;;;;;;8.98;6.07;;;23.50;50.60;;;;;;6180945;28;80802;-66
2022/11/06 04:46:15;;;;;;;10.30;6.57;;;23.50;51.10;;;;;;6170584;28;86001;-66
2022/11/06 04:49:16;;;;;;;11.45;7.00;;;23.50;50.80;;;;;;6172600;28;80275;-64
2022/11/06 04:52:16;;;;;;;11.68;6.55;;;23.50;50.60;;;;;;6165402;28;80976;-66
2022/11/06 04:55:17;;;;;;;9.27;6.28;;;23.50;50.60;;;;;;6191243;28;80126;-66
2022/11/06 04:58:17;;;;;;;9.90;6.47;;;23.50;50.60;;;;;;6177647;28;81454;-65
2022/11/06 05:01:18;;;;;;;9.32;5.78;;;23.50;50.50;;;;;;6182646;28;80471;-66
2022/11/06 05:04:18;;;;;;;11.55;6.90;;;23.50;50.50;;;;;;6191383;28;81154;-67
2022/11/06 05:07:19;;;;;;;13.23;6.55;;;23.50;50.40;;;;;;6177548;28;80319;-67
2022/11/06 05:10:19;;;;;;;10.35;6.38;;;23.50;50.40;;;;;;6182017;28;84182;-66
2022/11/06 05:13:20;;;;;;;9.48;6.70;;;23.50;50.30;;;;;;6194850;28;81467;-65
2022/11/06 05:16:20;;;;;;;10.18;6.25;;;23.50;50.40;;;;;;6179738;28;80092;-66
2022/11/06 05:19:21;;;;;;;10.43;6.30;;;23.50;50.30;;;;;;6182612;28;86467;-67
2022/11/06 05:25:40;;;;;;;9.30;5.85;;;23.50;50.20;;;;;;6168679;28;86771;-59
2022/11/06 05:28:41;;;;;;;12.75;6.45;;;23.50;50.30;;;;;;6171250;28;80768;-59
2022/11/06 05:31:41;;;;;;;11.18;6.50;;;23.50;50.10;;;;;;6169520;28;82235;-60
2022/11/06 05:34:42;;;;;;;8.90;6.28;;;23.50;50.40;;;;;;6168517;28;81523;-59
2022/11/06 05:37:42;;;;;;;12.00;7.15;;;23.50;50.10;;;;;;6173793;28;81879;-59
2022/11/06 05:40:43;;;;;;;14.27;7.25;;;23.50;50.30;;;;;;6177547;28;83493;-62
2022/11/06 05:43:44;;;;;;;9.55;6.18;;;23.50;50.20;;;;;;6186738;28;82905;-63
2022/11/06 05:46:44;;;;;;;13.80;6.90;;;23.50;50.00;;;;;;6198244;28;82391;-62
2022/11/06 05:49:45;;;;;;;9.57;6.32;;;23.50;50.30;;;;;;6178749;28;81960;-63
2022/11/06 05:52:45;;;;;;;11.75;6.68;;;23.50;50.10;;;;;;6196489;28;81263;-63
2022/11/06 05:55:46;;;;;;;9.52;6.50;;;23.50;49.90;;;;;;6198243;28;81322;-64
2022/11/06 05:58:46;;;;;;;10.90;6.45;;;23.50;50.20;;;;;;6181241;28;80474;-71
2022/11/06 06:01:47;;;;;;;10.98;6.88;;;23.50;50.60;;;;;;6175091;28;80502;-71
2022/11/06 06:04:47;;;;;;;12.63;6.40;;;23.50;50.70;;;;;;6195518;28;83791;-73
2022/11/06 06:07:48;;;;;;;11.98;6.50;;;23.50;52.10;;;;;;6174400;28;81517;-68
2022/11/06 06:10:49;;;;;;;15.70;7.20;;;23.50;51.80;;;;;;6175526;28;83606;-70
2022/11/06 06:13:49;;;;;;;12.10;6.28;;;23.50;51.10;;;;;;6196569;28;80846;-67
2022/11/06 06:16:50;;;;;;;12.27;6.15;;;23.50;51.10;;;;;;6174579;28;80602;-61
2022/11/06 06:19:50;;;;;;;13.05;6.30;;;23.50;51.80;;;;;;6174807;28;81277;-60
2022/11/06 06:22:51;;;;;;;10.85;5.85;;;23.50;51.40;;;;;;6175625;28;81130;-62
2022/11/06 06:25:51;;;;;;;11.80;6.07;;;23.50;51.70;;;;;;6173948;28;81471;-63
2022/11/06 06:28:52;;;;;;;10.65;6.63;;;23.50;52.00;;;;;;6173765;28;80792;-61
2022/11/06 06:31:52;;;;;;;17.38;6.40;;;23.50;52.00;;;;;;6173171;28;80664;-62
2022/11/06 06:34:53;;;;;;;11.85;5.97;;;23.50;52.00;;;;;;6172582;28;83887;-68
2022/11/06 06:37:53;;;;;;;11.50;6.18;;;23.50;52.00;;;;;;6187200;28;81200;-70
2022/11/06 06:40:54;;;;;;;9.27;5.97;;;23.60;52.00;;;;;;6185490;28;80578;-72
2022/11/06 06:43:54;;;;;;;11.15;6.30;;;23.60;52.50;;;;;;6179633;28;80944;-72
2022/11/06 06:46:55;;;;;;;15.50;6.75;;;23.60;52.70;;;;;;6187025;28;80572;-69
2022/11/06 06:49:55;;;;;;;11.85;6.03;;;23.50;53.00;;;;;;6202017;28;80633;-68
2022/11/06 06:52:56;;;;;;;14.20;7.25;;;23.50;52.60;;;;;;6188526;28;80991;-74
2022/11/06 06:55:56;;;;;;;15.77;6.68;;;23.50;52.70;;;;;;6165896;28;81964;-72
2022/11/06 06:58:57;;;;;;;14.00;7.35;;;23.50;52.60;;;;;;6173577;28;81001;-67
2022/11/06 07:01:57;;;;;;;11.98;6.65;;;23.50;52.90;;;;;;6183423;28;81071;-75
2022/11/06 07:04:58;;;;;;;11.13;6.75;;;23.50;52.50;;;;;;6180918;28;80927;-73
2022/11/06 07:07:58;;;;;;;10.55;5.97;;;23.60;52.40;;;;;;6167378;28;80494;-73
2022/11/06 07:10:59;;;;;;;10.55;5.60;;;23.60;52.40;;;;;;6167421;28;80706;-59
2022/11/06 07:14:00;;;;;;;16.15;7.25;;;23.60;52.80;;;;;;6165181;28;81409;-60
2022/11/06 07:17:00;;;;;;;17.27;7.95;;;23.60;52.60;;;;;;6141693;28;84250;-61
2022/11/06 07:20:01;;;;;;;16.63;9.13;;;23.60;53.00;;;;;;6163396;28;83252;-60
2022/11/06 07:23:01;;;;;;;17.85;9.32;;;23.60;53.00;;;;;;6153577;28;84400;-60
2022/11/06 07:26:02;;;;;;;19.17;9.18;;;23.60;53.30;;;;;;6164459;28;80778;-58
2022/11/06 07:29:02;;;;;;;18.85;10.07;;;23.70;53.10;;;;;;6145758;28;81914;-63
2022/11/06 07:32:03;;;;;;;22.98;11.23;;;23.70;53.50;;;;;;6164161;28;82908;-62
2022/11/06 07:35:03;;;;;;;25.45;11.55;;;23.70;53.80;;;;;;6163513;28;83555;-63
2022/11/06 07:38:05;;;;;;;25.10;13.60;;;23.70;53.90;;;;;;6168426;28;82844;-69
2022/11/06 07:41:05;;;;;;;24.02;13.90;;;23.70;54.30;;;;;;6177804;28;83272;-69
2022/11/06 07:44:06;;;;;;;19.92;11.02;;;23.70;54.20;;;;;;6176086;28;83077;-64
2022/11/06 07:47:06;;;;;;;27.23;12.85;;;23.80;54.10;;;;;;6179729;28;87632;-67
2022/11/06 07:50:07;;;;;;;20.42;11.43;;;23.80;53.90;;;;;;6175524;28;83249;-65
2022/11/06 07:53:07;;;;;;;24.50;11.85;;;23.80;53.70;;;;;;6177529;28;83285;-67
2022/11/06 07:56:08;;;;;;;21.80;10.73;;;23.70;53.50;;;;;;6175932;28;83143;-64
2022/11/06 07:59:08;;;;;;;19.42;10.85;;;23.80;53.50;;;;;;6180862;28;83356;-66
2022/11/06 08:02:09;;;;;;;17.02;10.27;;;23.80;53.40;;;;;;6195392;28;88501;-64
2022/11/06 08:05:09;;;;;;;17.83;10.13;;;23.80;53.40;;;;;;6202908;28;85885;-63
2022/11/06 08:08:10;;;;;;;17.63;10.25;;;23.80;53.50;;;;;;6194815;28;83226;-62
2022/11/06 08:11:10;;;;;;;18.52;10.00;;;23.80;53.40;;;;;;6190011;28;83033;-62
2022/11/06 08:14:11;;;;;;;17.15;8.80;;;23.80;53.30;;;;;;6191262;28;83908;-60
2022/11/06 08:17:11;;;;;;;14.32;7.18;;;23.70;54.80;;;;;;6197767;28;83267;-70
2022/11/06 08:20:12;;;;;;;10.75;6.45;;;23.50;55.70;;;;;;6196001;28;81587;-69
2022/11/06 08:23:12;;;;;;;10.18;5.63;;;23.40;57.00;;;;;;6192844;28;81295;-74
2022/11/06 08:26:13;;;;;;;10.40;6.03;;;23.40;57.50;;;;;;6196323;28;80820;-61
2022/11/06 08:29:13;;;;;;;10.77;5.68;;;23.40;57.90;;;;;;6194438;28;80743;-62
2022/11/06 08:32:14;;;;;;;8.55;5.30;;;23.40;58.20;;;;;;6194801;28;80938;-60
2022/11/06 08:35:14;;;;;;;12.10;6.97;;;23.40;58.80;;;;;;6193567;28;81672;-62
2022/11/06 08:38:15;;;;;;;10.35;5.78;;;23.40;59.00;;;;;;6197012;28;83018;-62
2022/11/06 08:41:16;;;;;;;8.25;4.97;;;23.30;60.00;;;;;;6193469;28;81278;-64
2022/11/06 08:44:17;;;;;;;7.47;4.43;;;23.30;60.60;;;;;;6164623;28;82098;-59
2022/11/06 08:47:17;;;;;;;4.97;4.00;;;23.20;61.10;;;;;;6193396;28;81895;-59
2022/11/06 08:50:17;;;;;;;5.78;3.95;;;23.30;61.40;;;;;;6195519;28;80758;-58
2022/11/06 08:53:18;;;;;;;5.03;3.80;;;23.30;61.50;;;;;;6195634;28;80926;-58
2022/11/06 08:56:18;;;;;;;13.20;4.07;;;23.30;61.70;;;;;;6196062;28;80599;-57
2022/11/06 08:59:19;;;;;;;10.43;4.22;;;23.30;61.90;;;;;;6201737;28;81368;-61
2022/11/06 09:02:20;;;;;;;7.75;4.18;;;23.30;62.00;;;;;;6196610;28;80624;-66
2022/11/06 09:05:20;;;;;;;5.63;3.03;;;23.30;62.20;;;;;;6193983;28;80638;-69
2022/11/06 09:08:21;;;;;;;5.10;3.47;;;23.30;62.00;;;;;;6194858;28;80658;-66
2022/11/06 09:11:21;;;;;;;5.22;3.00;;;23.30;62.20;;;;;;6199780;28;80819;-67
2022/11/06 09:14:22;;;;;;;6.95;3.42;;;23.40;62.10;;;;;;6199739;28;80839;-66
2022/11/06 09:17:23;;;;;;;6.70;4.07;;;23.50;61.30;;;;;;6193743;28;80777;-67
2022/11/06 09:20:23;;;;;;;6.20;4.03;;;23.60;61.10;;;;;;6201882;28;80350;-62
2022/11/06 09:23:24;;;;;;;14.10;4.70;;;23.60;60.20;;;;;;6199901;28;80786;-69
2022/11/06 09:26:24;;;;;;;9.02;3.97;;;23.70;59.40;;;;;;6206674;28;80545;-59
2022/11/06 09:29:25;;;;;;;14.27;5.07;;;23.70;58.90;;;;;;6201571;28;85494;-69
2022/11/06 09:32:25;;;;;;;9.98;5.13;;;23.70;58.50;;;;;;6200736;28;80587;-64
2022/11/06 09:35:26;;;;;;;7.35;4.55;;;23.80;58.30;;;;;;6178075;28;82462;-67
2022/11/06 09:38:26;;;;;;;10.35;5.03;;;23.80;57.90;;;;;;6170885;28;80435;-62
2022/11/06 09:41:27;;;;;;;9.10;5.43;;;23.80;57.50;;;;;;6172544;28;83623;-63
2022/11/06 09:44:27;;;;;;;12.63;6.32;;;23.80;57.20;;;;;;6176735;28;82968;-64
2022/11/06 09:47:28;;;;;;;9.32;5.60;;;23.90;56.60;;;;;;6179285;28;80608;-65
2022/11/06 09:50:29;;;;;;;11.00;6.43;;;23.90;56.30;;;;;;6214255;28;82359;-65
2022/11/06 09:53:29;;;;;;;10.27;6.53;;;23.90;56.70;;;;;;6199624;28;82717;-63
2022/11/06 09:56:30;;;;;;;10.68;6.55;;;23.90;56.40;;;;;;6193682;28;81998;-60
2022/11/06 09:59:30;;;;;;;10.48;5.82;;;23.90;56.20;;;;;;6201204;28;81361;-63
2022/11/06 10:02:31;;;;;;;14.50;7.15;;;23.90;56.10;;;;;;6213540;28;80805;-64
2022/11/06 10:05:31;;;;;;;9.25;5.38;;;23.90;55.60;;;;;;6215880;28;80595;-63
2022/11/06 10:08:32;;;;;;;12.50;6.45;;;23.90;55.60;;;;;;6185251;28;80670;-72
2022/11/06 10:11:33;;;;;;;8.43;5.70;;;23.90;55.40;;;;;;6191020;28;80905;-68
2022/11/06 10:14:34;;;;;;;11.95;6.10;;;23.90;55.20;;;;;;6197132;28;88250;-59
2022/11/06 10:17:34;;;;;;;12.15;6.13;;;23.90;54.90;;;;;;6198429;28;83386;-61
2022/11/06 10:20:35;;;;;;;8.65;6.38;;;23.90;55.00;;;;;;6198041;28;81367;-60
2022/11/06 10:23:35;;;;;;;10.80;5.95;;;23.90;54.80;;;;;;6200799;28;82272;-60
2022/11/06 10:26:36;;;;;;;10.90;5.35;;;23.90;54.70;;;;;;6198496;28;83439;-58
2022/11/06 10:29:37;;;;;;;12.85;6.88;;;23.90;54.90;;;;;;6195483;28;81203;-58
2022/11/06 10:32:38;;;;;;;9.02;5.97;;;23.90;54.70;;;;;;6194711;28;81274;-59
2022/11/06 10:35:38;;;;;;;12.45;6.25;;;23.90;54.60;;;;;;6194272;28;80685;-58
2022/11/06 10:38:39;;;;;;;12.93;6.90;;;23.90;54.50;;;;;;6193563;28;80822;-59
2022/11/06 10:41:40;;;;;;;11.60;6.07;;;23.90;54.30;;;;;;6191458;28;81678;-60
2022/11/06 10:44:40;;;;;;;14.38;7.63;;;23.90;54.40;;;;;;6202799;28;80676;-58
2022/11/06 10:47:41;;;;;;;13.95;8.02;;;23.90;55.40;;;;;;6200524;28;80415;-58
2022/11/06 10:50:41;;;;;;;13.05;8.90;;;23.90;55.50;;;;;;6200717;28;81299;-63
2022/11/06 10:53:42;;;;;;;27.27;15.98;;;23.90;56.70;;;;;;6198484;28;81725;-63
2022/11/06 10:56:42;;;;;;;198.15;96.38;;;23.90;56.30;;;;;;6196525;28;83259;-62
2022/11/06 10:59:43;;;;;;;393.08;177.07;;;23.90;56.30;;;;;;6203311;28;82891;-62
2022/11/06 11:02:43;;;;;;;463.40;217.10;;;23.90;56.80;;;;;;6192341;28;85886;-60
2022/11/06 11:05:44;;;;;;;527.10;258.90;;;23.90;56.60;;;;;;6176165;28;89477;-60
2022/11/06 11:08:44;;;;;;;669.85;357.50;;;23.90;56.60;;;;;;6167179;28;87046;-62
2022/11/06 11:11:45;;;;;;;723.60;386.48;;;23.90;56.60;;;;;;6171621;28;85557;-60
2022/11/06 11:14:45;;;;;;;647.40;331.20;;;24.00;56.30;;;;;;6190622;28;85301;-64
2022/11/06 11:17:46;;;;;;;667.75;341.30;;;24.00;56.30;;;;;;6166860;28;85896;-66
2022/11/06 11:20:46;;;;;;;603.30;301.73;;;24.00;56.00;;;;;;6163736;28;88058;-64
2022/11/06 11:23:47;;;;;;;563.90;277.40;;;24.00;56.00;;;;;;6152314;28;86190;-62
2022/11/06 11:26:47;;;;;;;494.10;225.30;;;24.00;55.80;;;;;;6175054;28;85932;-64
2022/11/06 11:29:49;;;;;;;473.88;213.95;;;24.00;55.80;;;;;;6158898;28;86044;-65
2022/11/06 11:32:49;;;;;;;404.10;179.55;;;24.00;55.80;;;;;;6150973;28;85509;-64
2022/11/06 11:35:50;;;;;;;376.92;165.57;;;24.00;55.50;;;;;;6150569;28;85635;-63
2022/11/06 11:38:50;;;;;;;309.83;136.35;;;24.10;55.60;;;;;;6160062;28;86402;-65
2022/11/06 11:41:51;;;;;;;299.88;127.53;;;24.10;55.40;;;;;;6161789;28;85868;-64
2022/11/06 11:44:51;;;;;;;274.58;116.30;;;24.10;55.10;;;;;;6164590;28;85364;-70
2022/11/06 11:47:52;;;;;;;241.82;106.63;;;24.10;54.90;;;;;;6164346;28;90153;-68
2022/11/06 11:50:52;;;;;;;222.15;100.43;;;24.10;54.70;;;;;;6164345;28;85725;-67
2022/11/06 11:53:53;;;;;;;201.95;88.43;;;24.10;54.60;;;;;;6166758;28;87231;-68
2022/11/06 11:56:54;;;;;;;179.32;82.93;;;24.10;54.70;;;;;;6165366;28;85468;-62
2022/11/06 11:59:55;;;;;;;174.05;79.47;;;24.10;54.60;;;;;;6174262;28;83561;-64
2022/11/06 12:02:55;;;;;;;174.20;75.15;;;24.10;54.40;;;;;;6192251;28;84387;-70
2022/11/06 12:05:56;;;;;;;148.23;64.25;;;24.10;54.40;;;;;;6172932;28;82768;-61
2022/11/06 12:08:56;;;;;;;140.30;63.15;;;24.10;54.50;;;;;;6168982;28;83815;-70
2022/11/06 12:11:57;;;;;;;122.30;57.55;;;24.10;54.50;;;;;;6164114;28;83142;-67
2022/11/06 12:14:58;;;;;;;115.18;51.88;;;24.10;54.80;;;;;;6152946;28;88253;-67
2022/11/06 12:17:58;;;;;;;115.97;46.90;;;24.00;55.70;;;;;;6192373;28;82930;-67
2022/11/06 12:20:59;;;;;;;100.82;45.72;;;24.10;55.30;;;;;;6210644;28;82926;-66
2022/11/06 12:24:00;;;;;;;90.82;43.95;;;24.10;55.40;;;;;;6179458;28;83563;-70
2022/11/06 12:27:00;;;;;;;89.97;39.75;;;24.10;55.40;;;;;;6169495;28;83024;-65
2022/11/06 12:30:02;;;;;;;83.13;37.33;;;24.10;55.40;;;;;;6191723;28;86352;-64
2022/11/06 12:33:02;;;;;;;78.55;34.40;;;24.10;55.40;;;;;;6193407;28;83036;-62
2022/11/06 12:36:03;;;;;;;73.60;32.90;;;24.10;55.20;;;;;;6170945;28;85799;-65
2022/11/06 12:39:03;;;;;;;68.75;30.17;;;24.10;54.80;;;;;;6179210;28;82845;-70
2022/11/06 12:42:04;;;;;;;58.28;28.17;;;24.10;54.80;;;;;;6191490;28;84369;-58
2022/11/06 12:45:04;;;;;;;53.53;27.77;;;24.10;54.60;;;;;;6169750;28;83727;-56
2022/11/06 12:48:05;;;;;;;61.20;26.80;;;24.20;54.60;;;;;;6170292;28;83861;-59
2022/11/06 12:51:05;;;;;;;50.90;22.05;;;24.20;55.10;;;;;;6160040;28;83289;-59
2022/11/06 12:54:06;;;;;;;49.42;22.98;;;24.10;55.00;;;;;;6170417;28;83064;-57
2022/11/06 12:57:06;;;;;;;48.40;21.80;;;24.10;54.50;;;;;;6176651;28;83060;-59
2022/11/06 13:00:07;;;;;;;41.47;19.80;;;24.10;54.50;;;;;;6181206;28;85465;-64
2022/11/06 13:03:07;;;;;;;33.28;17.08;;;24.10;54.60;;;;;;6174452;28;82928;-62
2022/11/06 13:06:08;;;;;;;30.67;14.70;;;24.10;54.20;;;;;;6195060;28;83460;-63
2022/11/06 13:09:08;;;;;;;29.25;14.55;;;24.00;53.40;;;;;;6187225;28;83004;-61
2022/11/06 13:12:09;;;;;;;37.38;14.35;;;24.00;53.10;;;;;;6186234;28;83362;-62
2022/11/06 13:15:09;;;;;;;24.23;14.63;;;24.00;52.80;;;;;;6184217;28;83636;-61
2022/11/06 13:18:10;;;;;;;29.85;13.30;;;24.00;53.20;;;;;;6176040;28;83094;-58
2022/11/06 13:21:10;;;;;;;22.05;12.93;;;24.00;52.20;;;;;;6171387;28;83013;-56
2022/11/06 13:24:11;;;;;;;24.05;12.45;;;24.00;52.00;;;;;;6183995;28;85253;-58
2022/11/06 13:27:11;;;;;;;24.58;11.30;;;24.00;52.10;;;;;;6172528;28;86288;-55
2022/11/06 13:30:12;;;;;;;22.75;10.55;;;24.00;52.00;;;;;;6170909;28;83244;-54
2022/11/06 13:33:13;;;;;;;25.85;11.20;;;24.00;52.00;;;;;;6179504;28;83095;-58
2022/11/06 13:36:13;;;;;;;32.85;10.10;;;24.00;52.10;;;;;;6169999;28;83369;-65
2022/11/06 13:39:14;;;;;;;21.65;9.75;;;24.00;52.20;;;;;;6193621;28;88205;-64
2022/11/06 13:42:14;;;;;;;29.25;10.05;;;24.00;52.10;;;;;;6188740;28;84414;-67
2022/11/06 13:45:15;;;;;;;19.10;8.85;;;24.00;51.80;;;;;;6183941;28;83118;-64
2022/11/06 13:48:15;;;;;;;19.98;8.77;;;24.00;51.70;;;;;;6173147;28;83373;-63
2022/11/06 13:51:16;;;;;;;17.55;8.88;;;23.90;51.80;;;;;;6171632;28;81279;-64
2022/11/06 13:54:16;;;;;;;19.10;8.07;;;24.00;51.60;;;;;;6174823;28;87467;-68
2022/11/06 13:57:17;;;;;;;14.68;8.40;;;24.00;51.50;;;;;;6188254;28;80821;-67
2022/11/06 14:00:17;;;;;;;14.73;8.13;;;24.00;51.40;;;;;;6171347;28;85719;-66
2022/11/06 14:03:18;;;;;;;19.38;8.13;;;24.00;51.30;;;;;;6178279;28;80913;-69
2022/11/06 14:06:18;;;;;;;17.63;7.88;;;24.00;51.30;;;;;;6184936;28;88175;-65
2022/11/06 14:09:19;;;;;;;13.25;7.05;;;24.00;51.20;;;;;;6177460;28;80634;-66
2022/11/06 14:12:19;;;;;;;10.65;6.93;;;24.00;51.10;;;;;;6174975;28;80990;-66
2022/11/06 14:15:20;;;;;;;14.05;6.60;;;24.00;51.00;;;;;;6179426;28;80979;-67
2022/11/06 14:18:21;;;;;;;16.15;7.30;;;24.00;51.00;;;;;;6174643;28;80750;-66
2022/11/06 14:21:21;;;;;;;14.57;6.65;;;24.00;50.90;;;;;;6188333;28;81559;-66
2022/11/06 14:24:22;;;;;;;10.85;6.05;;;24.10;50.90;;;;;;6194913;28;81087;-66
2022/11/06 14:27:22;;;;;;;9.15;6.18;;;24.20;50.50;;;;;;6172594;28;81032;-67
2022/11/06 14:30:23;;;;;;;14.43;6.45;;;24.30;50.40;;;;;;6174127;28;80106;-69
2022/11/06 14:33:23;;;;;;;14.05;6.50;;;24.40;49.90;;;;;;6191475;28;80665;-68
2022/11/06 14:36:24;;;;;;;8.10;5.40;;;24.40;49.70;;;;;;6197754;28;84993;-67
2022/11/06 14:39:24;;;;;;;12.65;5.82;;;24.50;49.50;;;;;;6178046;28;80528;-67
2022/11/06 14:42:24;;;;;;;16.20;6.32;;;24.50;49.10;;;;;;6174309;28;81008;-70
2022/11/06 14:45:26;;;;;;;9.32;5.72;;;24.50;49.10;;;;;;6161290;28;80934;-61
2022/11/06 14:48:26;;;;;;;10.05;5.47;;;24.40;49.30;;;;;;6172976;28;81187;-66
2022/11/06 14:51:27;;;;;;;10.35;5.75;;;24.30;49.30;;;;;;6201937;28;80845;-64
2022/11/06 14:54:27;;;;;;;12.00;5.20;;;24.30;49.60;;;;;;6174001;28;80524;-66
2022/11/06 14:57:28;;;;;;;10.20;5.65;;;24.30;49.80;;;;;;6177607;28;80553;-72
2022/11/06 15:00:28;;;;;;;10.30;5.35;;;24.20;49.80;;;;;;6170565;28;80395;-68
2022/11/06 15:03:29;;;;;;;9.30;5.30;;;24.20;49.90;;;;;;6176392;28;81381;-70
2022/11/06 15:06:29;;;;;;;9.52;5.63;;;24.20;50.10;;;;;;6175865;28;81394;-67
2022/11/06 15:09:30;;;;;;;9.43;5.05;;;24.10;50.00;;;;;;6182964;28;80421;-63
2022/11/06 15:12:30;;;;;;;14.00;5.35;;;24.10;50.30;;;;;;6178371;28;80279;-67
2022/11/06 15:15:31;;;;;;;9.43;4.57;;;24.10;50.40;;;;;;6176727;28;80919;-66
2022/11/06 15:18:31;;;;;;;9.18;5.03;;;24.10;50.40;;;;;;6176082;28;81708;-66
2022/11/06 15:21:32;;;;;;;10.52;4.60;;;24.10;50.40;;;;;;6181862;28;85618;-69
2022/11/06 15:24:32;;;;;;;9.68;4.90;;;24.10;50.50;;;;;;6172502;28;83542;-69
2022/11/06 15:27:33;;;;;;;12.32;5.55;;;24.10;50.50;;;;;;6166744;28;81640;-60
2022/11/06 15:30:33;;;;;;;8.68;4.57;;;24.10;50.70;;;;;;6154402;28;81974;-59
2022/11/06 15:33:34;;;;;;;15.75;5.53;;;24.10;50.90;;;;;;6169337;28;80938;-60
2022/11/06 15:36:34;;;;;;;10.18;5.05;;;24.10;50.90;;;;;;6167184;28;80537;-58
2022/11/06 15:39:35;;;;;;;10.40;5.05;;;24.10;51.10;;;;;;6169384;28;85783;-59